createdAt,value
2022-10-16T00:01:18.573Z,11.10
2022-10-16T00:03:46.757Z,11.09
2022-10-16T00:06:15.097Z,11.08
2022-10-16T00:08:42.793Z,11.05
2022-10-16T00:11:24.491Z,11.03
2022-10-16T00:13:55.589Z,11.05
2022-10-16T00:16:23.246Z,11.06
2022-10-16T00:18:50.908Z,11.08
2022-10-16T00:21:20.459Z,11.11
2022-10-16T00:23:48.125Z,11.14
2022-10-16T00:26:16.945Z,11.19
2022-10-16T00:28:48.947Z,11.21
2022-10-16T00:31:17.889Z,11.27
2022-10-16T00:33:46.086Z,11.30
2022-10-16T00:36:15.101Z,11.34
2022-10-16T00:38:42.975Z,11.39
2022-10-16T00:41:12.511Z,11.46
2022-10-16T00:43:47.695Z,11.51
2022-10-16T00:46:38.658Z,11.55
2022-10-16T00:49:08.878Z,11.58
2022-10-16T00:51:41.009Z,11.61
2022-10-16T00:54:14.475Z,11.65
2022-10-16T00:56:43.135Z,11.68
2022-10-16T00:59:27.478Z,11.71
2022-10-16T01:01:55.642Z,11.73
2022-10-16T01:04:24.335Z,11.80
2022-10-16T01:07:01.327Z,11.79
2022-10-16T01:09:28.958Z,11.81
2022-10-16T01:12:02.721Z,11.88
2022-10-16T01:14:41.437Z,11.95
2022-10-16T01:17:13.336Z,12.04
2022-10-16T01:19:59.839Z,12.05
2022-10-16T01:22:31.742Z,12.03
2022-10-16T01:25:02.347Z,12.06
2022-10-16T01:27:31.981Z,12.04
2022-10-16T01:30:15.026Z,12.04
2022-10-16T01:33:02.121Z,12.06
2022-10-16T01:35:33.271Z,12.05
2022-10-16T01:38:20.038Z,12.08
2022-10-16T01:40:51.510Z,12.07
2022-10-16T01:43:21.347Z,12.05
2022-10-16T01:45:49.480Z,11.98
2022-10-16T01:48:18.979Z,11.97
2022-10-16T01:50:51.907Z,11.98
2022-10-16T01:53:20.073Z,12.02
2022-10-16T01:55:49.068Z,12.07
2022-10-16T01:58:16.942Z,12.09
2022-10-16T02:00:46.220Z,12.13
2022-10-16T02:03:16.970Z,12.18
2022-10-16T02:05:51.602Z,12.21
2022-10-16T02:08:19.526Z,12.23
2022-10-16T02:10:47.292Z,12.24
2022-10-16T02:13:24.965Z,12.25
2022-10-16T02:15:52.658Z,12.24
2022-10-16T02:18:22.508Z,12.27
2022-10-16T02:20:54.060Z,12.34
2022-10-16T02:23:29.303Z,12.38
2022-10-16T02:25:59.259Z,12.40
2022-10-16T02:28:35.655Z,12.44
2022-10-16T02:31:05.917Z,12.49
2022-10-16T02:33:34.790Z,12.55
2022-10-16T02:36:02.635Z,12.62
2022-10-16T02:38:31.458Z,12.63
2022-10-16T02:40:59.427Z,12.62
2022-10-16T02:43:27.534Z,12.62
2022-10-16T02:45:55.343Z,12.60
2022-10-16T02:48:23.016Z,12.65
2022-10-16T02:50:50.643Z,12.67
2022-10-16T02:53:18.274Z,12.68
2022-10-16T02:55:45.928Z,12.76
2022-10-16T02:58:13.610Z,12.84
2022-10-16T03:00:41.326Z,12.93
2022-10-16T03:03:08.953Z,12.99
2022-10-16T03:05:36.813Z,13.03
2022-10-16T03:08:04.494Z,13.02
2022-10-16T03:10:32.222Z,13.01
2022-10-16T03:13:00.194Z,13.01
2022-10-16T03:15:29.282Z,13.01
2022-10-16T03:17:59.920Z,13.05
2022-10-16T03:20:27.638Z,13.05
2022-10-16T03:22:55.443Z,13.04
2022-10-16T03:25:23.842Z,13.01
2022-10-16T03:27:51.609Z,13.01
2022-10-16T03:30:19.979Z,13.01
2022-10-16T03:32:47.815Z,13.00
2022-10-16T03:35:15.528Z,13.01
2022-10-16T03:37:43.187Z,13.04
2022-10-16T03:40:11.123Z,13.09
2022-10-16T03:42:38.794Z,13.12
2022-10-16T03:45:06.787Z,13.11
2022-10-16T03:47:34.558Z,13.12
2022-10-16T03:50:02.264Z,13.18
2022-10-16T03:52:30.381Z,13.22
2022-10-16T03:54:58.736Z,13.27
2022-10-16T03:57:26.528Z,13.31
2022-10-16T03:59:54.342Z,13.36
2022-10-16T04:02:22.047Z,13.40
2022-10-16T04:04:50.030Z,13.44
2022-10-16T04:07:17.637Z,13.45
2022-10-16T04:09:45.310Z,13.47
2022-10-16T04:12:13.021Z,13.52
2022-10-16T04:14:40.884Z,13.53
2022-10-16T04:17:08.578Z,13.55
2022-10-16T04:19:36.408Z,13.58
2022-10-16T04:22:04.094Z,13.57
2022-10-16T04:24:31.904Z,13.61
2022-10-16T04:26:59.558Z,13.64
2022-10-16T04:29:27.179Z,13.65
2022-10-16T04:31:54.846Z,13.71
2022-10-16T04:34:22.469Z,13.75
2022-10-16T04:36:53.048Z,13.79
2022-10-16T04:39:20.676Z,13.81
2022-10-16T04:41:48.354Z,13.80
2022-10-16T04:44:15.983Z,13.79
2022-10-16T04:46:43.731Z,13.82
2022-10-16T04:49:11.352Z,13.84
2022-10-16T04:51:38.999Z,13.87
2022-10-16T04:54:06.682Z,13.86
2022-10-16T04:56:41.144Z,13.85
2022-10-16T04:59:08.916Z,13.84
2022-10-16T05:01:36.560Z,13.82
2022-10-16T05:04:04.181Z,13.79
2022-10-16T05:06:31.810Z,13.76
2022-10-16T05:08:59.445Z,13.75
2022-10-16T05:11:27.326Z,13.68
2022-10-16T05:13:55.941Z,13.61
2022-10-16T05:16:23.804Z,13.57
2022-10-16T05:18:53.230Z,13.52
2022-10-16T05:21:23.908Z,13.52
2022-10-16T05:23:51.580Z,13.52
2022-10-16T05:26:19.185Z,13.53
2022-10-16T05:28:46.873Z,13.52
2022-10-16T05:31:14.551Z,13.54
2022-10-16T05:33:42.342Z,13.56
2022-10-16T05:36:10.260Z,13.56
2022-10-16T05:38:38.341Z,13.58
2022-10-16T05:41:06.189Z,13.55
2022-10-16T05:43:33.845Z,13.63
2022-10-16T05:46:05.909Z,13.68
2022-10-16T05:48:34.150Z,13.64
2022-10-16T05:51:03.230Z,13.65
2022-10-16T05:53:33.044Z,13.70
2022-10-16T05:56:01.075Z,13.73
2022-10-16T05:58:33.276Z,13.72
2022-10-16T06:01:02.581Z,13.72
2022-10-16T06:03:30.292Z,13.77
2022-10-16T06:05:57.997Z,13.79
2022-10-16T06:08:25.792Z,13.81
2022-10-16T06:11:04.155Z,13.86
2022-10-16T06:13:32.124Z,13.88
2022-10-16T06:16:00.663Z,13.92
2022-10-16T06:18:28.986Z,13.96
2022-10-16T06:20:56.976Z,13.96
2022-10-16T06:23:25.225Z,13.93
2022-10-16T06:25:52.936Z,13.87
2022-10-16T06:28:20.564Z,13.83
2022-10-16T06:30:48.226Z,13.81
2022-10-16T06:33:15.918Z,13.81
2022-10-16T06:35:43.529Z,13.79
2022-10-16T06:38:11.145Z,13.77
2022-10-16T06:40:38.843Z,13.76
2022-10-16T06:43:06.535Z,13.75
2022-10-16T06:45:34.217Z,13.74
2022-10-16T06:48:02.231Z,13.74
2022-10-16T06:50:29.909Z,13.75
2022-10-16T06:52:57.594Z,13.81
2022-10-16T06:55:25.518Z,13.88
2022-10-16T06:57:53.238Z,13.96
2022-10-16T07:00:20.890Z,14.03
2022-10-16T07:02:48.566Z,14.09
2022-10-16T07:05:16.331Z,14.17
2022-10-16T07:07:44.242Z,14.22
2022-10-16T07:10:11.878Z,14.29
2022-10-16T07:12:39.522Z,14.34
2022-10-16T07:15:07.392Z,14.39
2022-10-16T07:17:35.305Z,14.44
2022-10-16T07:20:03.360Z,14.48
2022-10-16T07:22:31.012Z,14.51
2022-10-16T07:24:59.839Z,14.56
2022-10-16T07:27:27.580Z,14.59
2022-10-16T07:29:55.257Z,14.64
2022-10-16T07:32:22.900Z,14.70
2022-10-16T07:34:50.553Z,14.76
2022-10-16T07:37:18.313Z,14.84
2022-10-16T07:39:45.980Z,14.88
2022-10-16T07:42:13.652Z,14.95
2022-10-16T07:44:41.942Z,15.04
2022-10-16T07:47:10.198Z,15.13
2022-10-16T07:49:37.860Z,15.18
2022-10-16T07:52:05.624Z,15.24
2022-10-16T07:54:33.656Z,15.30
2022-10-16T07:57:01.310Z,15.35
2022-10-16T07:59:29.038Z,15.38
2022-10-16T08:01:56.694Z,15.43
2022-10-16T08:04:25.304Z,15.49
2022-10-16T08:06:53.018Z,15.55
2022-10-16T08:09:20.944Z,15.64
2022-10-16T08:11:48.594Z,15.73
2022-10-16T08:14:16.410Z,15.81
2022-10-16T08:16:44.026Z,15.89
2022-10-16T08:19:11.726Z,15.99
2022-10-16T08:21:39.401Z,16.13
2022-10-16T08:24:07.060Z,16.24
2022-10-16T08:26:34.691Z,16.36
2022-10-16T08:29:02.601Z,16.52
2022-10-16T08:31:30.444Z,16.70
2022-10-16T08:33:58.324Z,16.85
2022-10-16T08:36:26.021Z,16.97
2022-10-16T08:38:55.517Z,17.06
2022-10-16T08:41:55.841Z,17.21
2022-10-16T08:44:33.378Z,17.32
2022-10-16T08:47:13.118Z,17.39
2022-10-16T08:52:15.210Z,17.44
2022-10-16T08:54:46.089Z,17.46
2022-10-16T08:57:24.548Z,17.44
2022-10-16T08:59:52.895Z,17.40
2022-10-16T09:02:28.259Z,17.36
2022-10-16T09:05:05.253Z,17.31
2022-10-16T09:07:45.109Z,17.34
2022-10-16T09:10:31.845Z,17.41
2022-10-16T09:13:14.912Z,17.48
2022-10-16T09:15:42.514Z,17.59
2022-10-16T09:18:32.549Z,17.66
2022-10-16T09:21:00.826Z,17.73
2022-10-16T09:23:29.873Z,17.80
2022-10-16T09:25:59.508Z,17.86
2022-10-16T09:28:27.465Z,17.96
2022-10-16T09:30:55.714Z,18.07
2022-10-16T09:33:27.020Z,18.14
2022-10-16T09:35:55.752Z,18.25
2022-10-16T09:38:30.880Z,18.38
2022-10-16T09:41:03.042Z,18.49
2022-10-16T09:43:32.047Z,18.60
2022-10-16T09:46:01.569Z,18.69
2022-10-16T09:48:33.089Z,18.72
2022-10-16T09:51:02.574Z,18.77
2022-10-16T09:53:40.598Z,18.82
2022-10-16T09:56:11.714Z,18.87
2022-10-16T09:58:50.581Z,18.99
2022-10-16T10:01:18.341Z,19.16
2022-10-16T10:03:47.523Z,19.30
2022-10-16T10:06:18.300Z,19.45
2022-10-16T10:08:55.939Z,19.59
2022-10-16T10:11:39.113Z,19.70
2022-10-16T10:14:09.854Z,19.81
2022-10-16T10:16:37.471Z,19.83
2022-10-16T10:19:05.121Z,19.78
2022-10-16T10:21:33.910Z,19.80
2022-10-16T10:24:01.597Z,19.93
2022-10-16T10:26:31.005Z,20.01
2022-10-16T10:29:04.845Z,19.94
2022-10-16T10:31:52.817Z,19.85
2022-10-16T10:34:28.130Z,19.80
2022-10-16T10:37:05.545Z,19.86
2022-10-16T10:39:33.359Z,19.89
2022-10-16T10:42:07.103Z,19.97
2022-10-16T10:44:44.050Z,20.07
2022-10-16T10:47:20.495Z,20.11
2022-10-16T10:49:58.889Z,20.14
2022-10-16T10:52:29.666Z,20.19
2022-10-16T10:55:16.546Z,20.22
2022-10-16T10:58:02.082Z,20.30
2022-10-16T11:00:43.621Z,20.43
2022-10-16T11:03:23.552Z,20.60
2022-10-16T11:05:52.552Z,20.74
2022-10-16T11:08:23.001Z,20.87
2022-10-16T11:10:56.201Z,20.97
2022-10-16T11:13:37.213Z,21.05
2022-10-16T11:16:14.337Z,21.17
2022-10-16T11:18:44.058Z,21.25
2022-10-16T11:21:14.205Z,21.22
2022-10-16T11:23:57.697Z,21.15
2022-10-16T11:26:31.747Z,21.10
2022-10-16T11:29:01.412Z,21.10
2022-10-16T11:31:33.682Z,21.13
2022-10-16T11:34:06.990Z,21.15
2022-10-16T11:36:40.447Z,21.08
2022-10-16T11:39:08.038Z,21.08
2022-10-16T11:41:35.690Z,21.13
2022-10-16T11:44:06.600Z,21.25
2022-10-16T11:46:47.878Z,21.34
2022-10-16T11:49:26.601Z,21.42
2022-10-16T11:52:18.145Z,21.45
2022-10-16T11:54:52.665Z,21.49
2022-10-16T11:57:33.034Z,21.52
2022-10-16T12:00:06.667Z,21.53
2022-10-16T12:02:40.130Z,21.50
2022-10-16T12:05:16.323Z,21.48
2022-10-16T12:08:06.974Z,21.45
2022-10-16T12:13:26.019Z,21.46
2022-10-16T12:16:04.729Z,21.43
2022-10-16T12:18:32.363Z,21.38
2022-10-16T12:21:06.040Z,21.26
2022-10-16T12:23:37.772Z,21.19
2022-10-16T12:26:06.353Z,21.15
2022-10-16T12:28:34.632Z,21.11
2022-10-16T12:31:04.332Z,21.21
2022-10-16T12:33:36.418Z,21.31
2022-10-16T12:36:27.156Z,21.42
2022-10-16T12:38:54.920Z,21.56
2022-10-16T12:41:28.907Z,21.66
2022-10-16T12:43:56.926Z,21.82
2022-10-16T12:46:45.014Z,21.97
2022-10-16T12:49:16.666Z,22.03
2022-10-16T12:51:44.510Z,22.05
2022-10-16T12:54:16.760Z,21.99
2022-10-16T12:57:03.085Z,21.84
2022-10-16T12:59:39.324Z,21.60
2022-10-16T13:02:24.944Z,21.45
2022-10-16T13:05:09.903Z,21.34
2022-10-16T13:08:03.136Z,21.21
2022-10-16T13:10:41.396Z,21.05
2022-10-16T13:13:25.012Z,20.96
2022-10-16T13:15:55.676Z,20.99
2022-10-16T13:18:27.802Z,21.04
2022-10-16T13:21:01.605Z,21.09
2022-10-16T13:23:36.836Z,21.16
2022-10-16T13:26:13.694Z,21.22
2022-10-16T13:28:41.749Z,21.27
2022-10-16T13:31:21.097Z,21.24
2022-10-16T13:33:51.826Z,21.22
2022-10-16T13:36:21.389Z,21.22
2022-10-16T13:38:49.546Z,21.25
2022-10-16T13:41:19.298Z,21.27
2022-10-16T13:43:49.977Z,21.24
2022-10-16T13:46:19.461Z,21.20
2022-10-16T13:48:59.468Z,21.09
2022-10-16T13:51:27.654Z,20.90
2022-10-16T13:53:56.383Z,20.79
2022-10-16T13:56:26.764Z,20.69
2022-10-16T13:59:00.966Z,20.54
2022-10-16T14:01:32.753Z,20.44
2022-10-16T14:04:06.354Z,20.35
2022-10-16T14:06:34.375Z,20.29
2022-10-16T14:09:08.125Z,20.25
2022-10-16T14:11:39.700Z,20.21
2022-10-16T14:14:12.013Z,20.16
2022-10-16T14:16:42.062Z,20.10
2022-10-16T14:19:21.457Z,20.07
2022-10-16T14:21:50.220Z,20.02
2022-10-16T14:24:27.385Z,19.98
2022-10-16T14:26:57.391Z,19.95
2022-10-16T14:29:26.532Z,19.92
2022-10-16T14:31:57.629Z,19.89
2022-10-16T14:34:36.256Z,19.86
2022-10-16T14:37:15.955Z,19.85
2022-10-16T14:39:43.884Z,19.80
2022-10-16T14:42:17.771Z,19.79
2022-10-16T14:44:45.958Z,19.89
2022-10-16T14:47:18.356Z,19.98
2022-10-16T14:49:46.024Z,20.01
2022-10-16T14:52:14.127Z,20.02
2022-10-16T14:54:41.760Z,20.01
2022-10-16T14:57:19.974Z,19.96
2022-10-16T14:59:48.331Z,19.88
2022-10-16T15:02:21.998Z,19.80
2022-10-16T15:04:50.132Z,19.75
2022-10-16T15:07:17.858Z,19.72
2022-10-16T15:09:49.017Z,19.68
2022-10-16T15:12:18.289Z,19.68
2022-10-16T15:14:45.985Z,19.69
2022-10-16T15:17:14.663Z,19.64
2022-10-16T15:19:44.205Z,19.57
2022-10-16T15:22:13.337Z,19.51
2022-10-16T15:24:41.032Z,19.44
2022-10-16T15:27:08.743Z,19.35
2022-10-16T15:29:36.349Z,19.25
2022-10-16T15:32:04.345Z,19.12
2022-10-16T15:34:32.122Z,19.02
2022-10-16T15:37:03.299Z,18.90
2022-10-16T15:39:30.916Z,18.78
2022-10-16T15:41:58.589Z,18.63
2022-10-16T15:44:30.888Z,18.48
2022-10-16T15:46:58.981Z,18.33
2022-10-16T15:49:26.644Z,18.18
2022-10-16T15:51:55.941Z,18.03
2022-10-16T15:54:23.929Z,17.88
2022-10-16T15:56:51.603Z,17.74
2022-10-16T15:59:21.872Z,17.61
2022-10-16T16:01:49.647Z,17.50
2022-10-16T16:04:42.251Z,17.37
2022-10-16T16:07:08.360Z,17.22
2022-10-16T16:09:36.413Z,17.10
2022-10-16T16:12:04.705Z,16.98
2022-10-16T16:14:32.505Z,16.86
2022-10-16T16:17:00.272Z,16.72
2022-10-16T16:19:27.989Z,16.60
2022-10-16T16:21:55.763Z,16.46
2022-10-16T16:24:23.533Z,16.35
2022-10-16T16:26:51.167Z,16.29
2022-10-16T16:29:18.813Z,16.24
2022-10-16T16:31:48.156Z,16.14
2022-10-16T16:34:16.033Z,16.03
2022-10-16T16:36:43.690Z,15.92
2022-10-16T16:39:11.770Z,15.83
2022-10-16T16:41:39.511Z,15.72
2022-10-16T16:44:08.680Z,15.57
2022-10-16T16:46:36.471Z,15.44
2022-10-16T16:49:04.402Z,15.29
2022-10-16T16:51:35.779Z,15.20
2022-10-16T16:54:08.359Z,15.14
2022-10-16T16:56:36.248Z,15.08
2022-10-16T16:59:04.922Z,15.01
2022-10-16T17:01:32.656Z,14.95
2022-10-16T17:04:00.744Z,14.87
2022-10-16T17:06:30.639Z,14.80
2022-10-16T17:08:59.030Z,14.73
2022-10-16T17:11:27.615Z,14.63
2022-10-16T17:13:57.109Z,14.53
2022-10-16T17:16:27.908Z,14.47
2022-10-16T17:18:55.587Z,14.45
2022-10-16T17:21:23.492Z,14.40
2022-10-16T17:23:52.912Z,14.34
2022-10-16T17:26:20.801Z,14.27
2022-10-16T17:28:51.610Z,14.20
2022-10-16T17:31:20.850Z,14.12
2022-10-16T17:33:48.679Z,14.07
2022-10-16T17:36:16.353Z,14.02
2022-10-16T17:38:44.386Z,13.92
2022-10-16T17:41:16.962Z,13.82
2022-10-16T17:43:45.507Z,13.70
2022-10-16T17:46:13.994Z,13.61
2022-10-16T17:48:43.074Z,13.54
2022-10-16T17:51:12.015Z,13.49
2022-10-16T17:53:40.116Z,13.45
2022-10-16T17:56:11.669Z,13.41
2022-10-16T17:58:39.716Z,13.35
2022-10-16T18:01:17.784Z,13.32
2022-10-16T18:03:49.072Z,13.30
2022-10-16T18:06:21.871Z,13.25
2022-10-16T18:08:51.990Z,13.15
2022-10-16T18:11:20.446Z,13.05
2022-10-16T18:13:48.169Z,12.96
2022-10-16T18:16:16.269Z,12.88
2022-10-16T18:18:48.017Z,12.81
2022-10-16T18:21:17.555Z,12.77
2022-10-16T18:23:50.799Z,12.74
2022-10-16T18:26:20.554Z,12.72
2022-10-16T18:28:48.348Z,12.68
2022-10-16T18:31:17.149Z,12.60
2022-10-16T18:33:48.748Z,12.52
2022-10-16T18:36:18.181Z,12.49
2022-10-16T18:38:46.231Z,12.45
2022-10-16T18:41:14.100Z,12.43
2022-10-16T18:43:42.123Z,12.41
2022-10-16T18:46:14.383Z,12.41
2022-10-16T18:48:42.518Z,12.38
2022-10-16T18:51:10.529Z,12.29
2022-10-16T18:53:39.056Z,12.23
2022-10-16T18:56:06.888Z,12.17
2022-10-16T18:58:36.007Z,12.08
2022-10-16T19:01:05.843Z,12.01
2022-10-16T19:03:34.065Z,12.00
2022-10-16T19:06:07.045Z,12.01
2022-10-16T19:08:38.189Z,11.98
2022-10-16T19:11:07.497Z,11.97
2022-10-16T19:13:35.312Z,11.96
2022-10-16T19:16:19.423Z,11.95
2022-10-16T19:18:49.085Z,11.94
2022-10-16T19:21:16.908Z,11.95
2022-10-16T19:23:44.895Z,11.94
2022-10-16T19:26:14.548Z,11.90
2022-10-16T19:28:42.792Z,11.84
2022-10-16T19:31:14.874Z,11.79
2022-10-16T19:33:43.105Z,11.75
2022-10-16T19:36:12.123Z,11.73
2022-10-16T19:38:40.776Z,11.73
2022-10-16T19:41:09.630Z,11.70
2022-10-16T19:43:37.923Z,11.71
2022-10-16T19:46:06.768Z,11.67
2022-10-16T19:48:35.111Z,11.65
2022-10-16T19:51:03.092Z,11.65
2022-10-16T19:53:31.727Z,11.63
2022-10-16T19:55:59.780Z,11.59
2022-10-16T19:58:27.885Z,11.56
2022-10-16T20:00:55.550Z,11.49
2022-10-16T20:03:23.226Z,11.45
2022-10-16T20:05:55.095Z,11.43
2022-10-16T20:08:23.108Z,11.41
2022-10-16T20:10:51.838Z,11.40
2022-10-16T20:13:20.215Z,11.36
2022-10-16T20:15:48.552Z,11.33
2022-10-16T20:18:16.878Z,11.24
2022-10-16T20:20:47.321Z,11.12
2022-10-16T20:23:17.606Z,10.98
2022-10-16T20:25:45.657Z,10.90
2022-10-16T20:28:14.715Z,10.85
2022-10-16T20:30:44.076Z,10.83
2022-10-16T20:33:12.647Z,10.83
2022-10-16T20:35:43.095Z,10.84
2022-10-16T20:38:11.843Z,10.83
2022-10-16T20:40:40.394Z,10.82
2022-10-16T20:43:08.271Z,10.82
2022-10-16T20:45:35.974Z,10.83
2022-10-16T20:48:04.087Z,10.80
2022-10-16T20:50:32.366Z,10.76
2022-10-16T20:53:00.155Z,10.74
2022-10-16T20:55:28.163Z,10.72
2022-10-16T20:57:56.205Z,10.68
2022-10-16T21:00:23.886Z,10.69
2022-10-16T21:02:52.347Z,10.69
2022-10-16T21:05:20.176Z,10.67
2022-10-16T21:07:47.894Z,10.60
2022-10-16T21:10:15.690Z,10.55
2022-10-16T21:12:43.483Z,10.57
2022-10-16T21:15:15.378Z,10.60
2022-10-16T21:17:43.624Z,10.61
2022-10-16T21:20:11.390Z,10.59
2022-10-16T21:22:39.030Z,10.56
2022-10-16T21:25:06.824Z,10.53
2022-10-16T21:27:38.369Z,10.48
2022-10-16T21:30:07.358Z,10.44
2022-10-16T21:32:36.135Z,10.42
2022-10-16T21:35:04.384Z,10.44
2022-10-16T21:37:32.161Z,10.45
2022-10-16T21:39:59.915Z,10.45
2022-10-16T21:42:28.091Z,10.48
2022-10-16T21:44:56.098Z,10.48
2022-10-16T21:47:23.801Z,10.48
2022-10-16T21:49:51.610Z,10.46
2022-10-16T21:52:19.699Z,10.46
2022-10-16T21:54:47.343Z,10.48
2022-10-16T21:57:15.038Z,10.52
2022-10-16T21:59:42.710Z,10.55
2022-10-16T22:02:10.383Z,10.61
2022-10-16T22:04:38.109Z,10.68
2022-10-16T22:07:05.792Z,10.71
2022-10-16T22:09:33.522Z,10.75
2022-10-16T22:12:01.293Z,10.80
2022-10-16T22:14:29.083Z,10.84
2022-10-16T22:16:56.759Z,10.85
2022-10-16T22:19:24.704Z,10.88
2022-10-16T22:21:57.330Z,10.86
2022-10-16T22:24:25.403Z,10.83
2022-10-16T22:26:53.212Z,10.84
2022-10-16T22:29:21.074Z,10.87
2022-10-16T22:31:52.377Z,10.95
2022-10-16T22:34:20.215Z,11.00
2022-10-16T22:36:48.851Z,10.95
2022-10-16T22:39:17.147Z,10.93
2022-10-16T22:41:44.791Z,11.04
2022-10-16T22:44:13.273Z,11.11
2022-10-16T22:46:41.005Z,11.07
2022-10-16T22:49:08.944Z,11.01
2022-10-16T22:51:36.980Z,11.05
2022-10-16T22:54:04.919Z,11.13
2022-10-16T22:56:32.652Z,11.22
2022-10-16T22:59:00.343Z,11.30
2022-10-16T23:01:29.443Z,11.34
2022-10-16T23:03:57.492Z,11.40
2022-10-16T23:06:25.448Z,11.48
2022-10-16T23:08:53.656Z,11.55
2022-10-16T23:11:22.038Z,11.57
2022-10-16T23:13:50.186Z,11.58
2022-10-16T23:16:19.384Z,11.65
2022-10-16T23:18:47.710Z,11.74
2022-10-16T23:21:16.942Z,11.82
2022-10-16T23:23:45.101Z,11.86
2022-10-16T23:26:17.399Z,11.89
2022-10-16T23:28:45.414Z,11.92
2022-10-16T23:31:13.775Z,11.92
2022-10-16T23:33:42.008Z,11.93
2022-10-16T23:36:11.133Z,11.92
2022-10-16T23:38:39.200Z,11.81
2022-10-16T23:41:07.385Z,11.71
2022-10-16T23:43:35.187Z,11.69
2022-10-16T23:46:03.096Z,11.74
2022-10-16T23:48:30.737Z,11.74
2022-10-16T23:50:58.463Z,11.71
2022-10-16T23:53:26.508Z,11.69
2022-10-16T23:55:54.325Z,11.69
2022-10-16T23:58:22.033Z,11.68
